createdAt,value
2023-03-15T00:00:55.264Z,99873.59
2023-03-15T00:03:24.554Z,99871.00
2023-03-15T00:05:52.501Z,99877.03
2023-03-15T00:08:19.521Z,99884.03
2023-03-15T00:10:47.249Z,99888.31
2023-03-15T00:13:15.384Z,99888.41
2023-03-15T00:15:48.312Z,99883.13
2023-03-15T00:18:16.145Z,99897.88
2023-03-15T00:20:45.807Z,99898.69
2023-03-15T00:23:13.191Z,99902.16
2023-03-15T00:25:40.155Z,99909.16
2023-03-15T00:28:06.988Z,99913.47
2023-03-15T00:42:54.172Z,99941.25
2023-03-15T00:45:21.716Z,99955.94
2023-03-15T00:47:52.859Z,99954.25
2023-03-15T00:50:20.280Z,99961.28
2023-03-15T00:52:47.196Z,99959.44
2023-03-15T00:55:15.971Z,99960.22
2023-03-15T00:57:43.906Z,99965.34
2023-03-15T01:00:14.590Z,99967.09
2023-03-15T01:02:41.693Z,99967.97
2023-03-15T01:05:09.562Z,99967.84
2023-03-15T01:07:36.373Z,99985.22
2023-03-15T01:10:05.406Z,99990.38
2023-03-15T01:12:33.047Z,99991.25
2023-03-15T01:15:01.029Z,100002.47
2023-03-15T01:17:27.713Z,99999.97
2023-03-15T01:19:54.357Z,100005.06
2023-03-15T01:22:21.113Z,99999.66
2023-03-15T01:24:47.893Z,99999.69
2023-03-15T01:27:14.503Z,99999.66
2023-03-15T01:29:41.162Z,100006.47
2023-03-15T01:32:08.019Z,100012.66
2023-03-15T01:34:35.006Z,100014.31
2023-03-15T01:37:03.094Z,100017.75
2023-03-15T01:39:31.220Z,100022.22
2023-03-15T01:41:57.958Z,100025.53
2023-03-15T01:44:24.926Z,100032.44
2023-03-15T01:46:51.667Z,100038.59
2023-03-15T01:49:24.397Z,100037.66
2023-03-15T01:51:57.155Z,100044.56
2023-03-15T01:54:33.330Z,100048.91
2023-03-15T01:57:04.099Z,100051.50
2023-03-15T01:59:34.889Z,100046.06
2023-03-15T02:02:02.140Z,100044.38
2023-03-15T02:04:31.439Z,100057.41
2023-03-15T02:06:59.805Z,100063.38
2023-03-15T02:09:42.641Z,100072.03
2023-03-15T02:12:10.708Z,100068.53
2023-03-15T02:14:37.738Z,100067.78
2023-03-15T02:17:04.631Z,100070.31
2023-03-15T02:20:19.329Z,100070.31
2023-03-15T02:23:04.033Z,100079.81
2023-03-15T02:25:39.117Z,100070.25
2023-03-15T02:28:07.291Z,100078.84
2023-03-15T02:30:34.414Z,100087.59
2023-03-15T02:33:03.145Z,100089.22
2023-03-15T02:35:31.858Z,100091.75
2023-03-15T02:37:59.407Z,100087.56
2023-03-15T02:40:28.572Z,100099.59
2023-03-15T02:43:01.615Z,100095.34
2023-03-15T02:45:29.447Z,100095.44
2023-03-15T02:47:56.525Z,100088.56
2023-03-15T02:50:23.154Z,100102.50
2023-03-15T02:52:49.929Z,100098.97
2023-03-15T02:55:19.294Z,100109.31
2023-03-15T02:57:46.103Z,100111.84
2023-03-15T03:00:16.055Z,100123.13
2023-03-15T03:02:44.875Z,100121.34
2023-03-15T03:05:13.539Z,100124.69
2023-03-15T03:07:42.805Z,100136.00
2023-03-15T03:10:11.519Z,100148.28
2023-03-15T03:12:38.185Z,100152.59
2023-03-15T03:15:05.398Z,100142.84
2023-03-15T03:17:32.082Z,100149.03
2023-03-15T03:19:58.695Z,100149.94
2023-03-15T03:22:25.439Z,100147.31
2023-03-15T03:24:52.092Z,100149.13
2023-03-15T03:27:19.070Z,100152.47
2023-03-15T03:29:46.005Z,100161.00
2023-03-15T03:32:12.689Z,100162.78
2023-03-15T03:34:39.334Z,100166.28
2023-03-15T03:37:06.007Z,100168.13
2023-03-15T03:39:32.663Z,100165.56
2023-03-15T03:41:59.286Z,100174.22
2023-03-15T03:44:25.973Z,100179.28
2023-03-15T03:46:52.591Z,100185.22
2023-03-15T03:49:19.271Z,100186.34
2023-03-15T03:51:45.895Z,100195.69
2023-03-15T03:54:16.511Z,100201.50
2023-03-15T03:56:46.296Z,100198.19
2023-03-15T03:59:12.929Z,100199.78
2023-03-15T04:01:42.083Z,100198.81
2023-03-15T04:04:09.047Z,100204.66
2023-03-15T04:06:35.818Z,100213.25
2023-03-15T04:09:05.340Z,100207.13
2023-03-15T04:11:31.942Z,100222.66
2023-03-15T04:13:58.551Z,100232.13
2023-03-15T04:16:25.490Z,100236.63
2023-03-15T04:18:52.192Z,100241.69
2023-03-15T04:21:23.114Z,100237.41
2023-03-15T04:23:49.779Z,100245.94
2023-03-15T04:26:16.368Z,100242.69
2023-03-15T04:28:43.004Z,100238.28
2023-03-15T04:31:11.245Z,100251.16
2023-03-15T04:33:38.984Z,100246.81
2023-03-15T04:36:05.859Z,100250.38
2023-03-15T04:38:32.652Z,100258.38
2023-03-15T04:40:59.303Z,100259.44
2023-03-15T04:43:25.934Z,100257.53
2023-03-15T04:45:52.534Z,100252.38
2023-03-15T04:48:19.238Z,100258.66
2023-03-15T04:50:45.890Z,100269.97
2023-03-15T04:53:12.517Z,100262.03
2023-03-15T04:55:39.104Z,100262.81
2023-03-15T04:58:05.736Z,100264.53
2023-03-15T05:00:32.337Z,100273.38
2023-03-15T05:02:59.020Z,100274.94
2023-03-15T05:05:25.744Z,100277.56
2023-03-15T05:07:52.353Z,100280.06
2023-03-15T05:10:19.644Z,100279.84
2023-03-15T05:12:46.699Z,100285.03
2023-03-15T05:15:13.409Z,100288.47
2023-03-15T05:17:40.151Z,100284.00
2023-03-15T05:20:11.833Z,100290.34
2023-03-15T05:22:39.561Z,100288.50
2023-03-15T05:25:07.276Z,100294.41
2023-03-15T05:27:34.520Z,100290.97
2023-03-15T05:30:04.609Z,100295.28
2023-03-15T05:32:34.657Z,100302.16
2023-03-15T05:35:02.148Z,100314.97
2023-03-15T05:37:29.130Z,100318.47
2023-03-15T05:39:56.166Z,100320.44
2023-03-15T05:42:26.179Z,100329.00
2023-03-15T05:44:57.135Z,100327.22
2023-03-15T05:47:24.173Z,100336.06
2023-03-15T05:49:50.866Z,100348.97
2023-03-15T05:52:17.472Z,100358.34
2023-03-15T05:54:44.133Z,100369.72
2023-03-15T05:57:11.573Z,100362.66
2023-03-15T05:59:38.274Z,100371.47
2023-03-15T06:02:04.956Z,100377.66
2023-03-15T06:04:31.733Z,100374.09
2023-03-15T06:06:58.418Z,100384.75
2023-03-15T06:09:25.133Z,100393.44
2023-03-15T06:11:52.298Z,100396.34
2023-03-15T06:14:18.930Z,100402.47
2023-03-15T06:16:45.595Z,100404.44
2023-03-15T06:19:12.326Z,100405.34
2023-03-15T06:21:39.071Z,100419.31
2023-03-15T06:24:07.318Z,100415.22
2023-03-15T06:26:33.957Z,100420.41
2023-03-15T06:29:00.591Z,100424.09
2023-03-15T06:31:27.239Z,100426.09
2023-03-15T06:33:53.928Z,100426.03
2023-03-15T06:36:20.579Z,100431.38
2023-03-15T06:38:47.239Z,100430.69
2023-03-15T06:41:15.598Z,100437.72
2023-03-15T06:43:42.539Z,100442.81
2023-03-15T06:46:09.158Z,100449.59
2023-03-15T06:48:35.947Z,100450.88
2023-03-15T06:51:04.114Z,100451.50
2023-03-15T06:53:34.723Z,100454.22
2023-03-15T06:56:01.323Z,100453.50
2023-03-15T06:58:27.962Z,100461.38
2023-03-15T07:00:54.586Z,100463.25
2023-03-15T07:03:22.430Z,100472.09
2023-03-15T07:05:52.472Z,100474.84
2023-03-15T07:08:19.599Z,100479.00
2023-03-15T07:10:46.703Z,100492.19
2023-03-15T07:13:13.607Z,100503.59
2023-03-15T07:15:40.296Z,100503.72
2023-03-15T07:18:07.038Z,100501.94
2023-03-15T07:20:35.617Z,100508.75
2023-03-15T07:23:04.165Z,100500.22
2023-03-15T07:25:30.773Z,100504.66
2023-03-15T07:27:57.350Z,100510.81
2023-03-15T07:30:23.960Z,100509.94
2023-03-15T07:32:50.738Z,100514.28
2023-03-15T07:35:18.230Z,100512.66
2023-03-15T07:37:45.397Z,100514.50
2023-03-15T07:40:12.708Z,100513.88
2023-03-15T07:42:42.413Z,100527.00
2023-03-15T07:45:10.209Z,100532.94
2023-03-15T07:47:36.876Z,100533.97
2023-03-15T07:50:05.148Z,100543.53
2023-03-15T07:52:31.812Z,100542.00
2023-03-15T07:54:58.456Z,100542.88
2023-03-15T07:57:27.060Z,100543.72
2023-03-15T07:59:55.171Z,100548.09
2023-03-15T08:02:21.836Z,100550.69
2023-03-15T08:04:50.900Z,100542.91
2023-03-15T08:07:17.726Z,100541.16
2023-03-15T08:09:44.897Z,100548.09
2023-03-15T08:12:11.785Z,100552.63
2023-03-15T08:14:38.463Z,100557.78
2023-03-15T08:17:05.491Z,100549.28
2023-03-15T08:19:32.858Z,100564.03
2023-03-15T08:21:59.582Z,100565.78
2023-03-15T08:24:27.124Z,100576.31
2023-03-15T08:26:53.812Z,100573.63
2023-03-15T08:29:20.598Z,100584.91
2023-03-15T08:31:47.287Z,100586.50
2023-03-15T08:34:13.925Z,100582.13
2023-03-15T08:36:41.867Z,100580.44
2023-03-15T08:39:08.829Z,100582.31
2023-03-15T08:41:38.195Z,100580.56
2023-03-15T08:44:04.885Z,100585.78
2023-03-15T08:46:33.008Z,100588.34
2023-03-15T08:48:59.984Z,100591.19
2023-03-15T08:51:27.063Z,100586.13
2023-03-15T08:53:53.733Z,100591.41
2023-03-15T08:56:20.983Z,100589.03
2023-03-15T08:58:48.382Z,100596.91
2023-03-15T09:01:15.562Z,100604.94
2023-03-15T09:03:42.536Z,100604.09
2023-03-15T09:06:09.661Z,100611.19
2023-03-15T09:08:36.277Z,100603.97
2023-03-15T09:11:03.908Z,100613.72
2023-03-15T09:13:30.695Z,100619.00
2023-03-15T09:15:57.867Z,100622.69
2023-03-15T09:18:24.559Z,100624.66
2023-03-15T09:20:51.259Z,100635.13
2023-03-15T09:23:17.906Z,100629.13
2023-03-15T09:25:44.569Z,100634.34
2023-03-15T09:28:11.792Z,100633.53
2023-03-15T09:30:39.744Z,100636.03
2023-03-15T09:33:07.531Z,100642.19
2023-03-15T09:35:35.568Z,100644.91
2023-03-15T09:38:03.856Z,100645.59
2023-03-15T09:40:42.406Z,100651.97
2023-03-15T09:43:09.036Z,100651.25
2023-03-15T09:45:41.355Z,100662.59
2023-03-15T09:48:25.309Z,100668.69
2023-03-15T09:50:55.278Z,100677.47
2023-03-15T09:53:29.201Z,100670.53
2023-03-15T09:55:55.825Z,100667.91
2023-03-15T09:58:32.545Z,100674.06
2023-03-15T10:01:13.056Z,100679.44
2023-03-15T10:03:49.884Z,100692.47
2023-03-15T10:06:19.479Z,100691.69
2023-03-15T10:08:46.994Z,100694.34
2023-03-15T10:11:21.226Z,100691.72
2023-03-15T10:13:55.229Z,100690.91
2023-03-15T10:16:40.913Z,100679.59
2023-03-15T10:19:15.661Z,100690.09
2023-03-15T10:21:57.044Z,100683.94
2023-03-15T10:24:31.680Z,100692.66
2023-03-15T10:27:00.170Z,100696.00
2023-03-15T10:29:27.115Z,100701.28
2023-03-15T10:31:54.523Z,100694.31
2023-03-15T10:34:22.892Z,100697.03
2023-03-15T10:36:54.263Z,100692.66
2023-03-15T10:39:21.943Z,100690.97
2023-03-15T10:41:49.778Z,100695.44
2023-03-15T10:44:19.653Z,100699.75
2023-03-15T10:47:19.997Z,100716.28
2023-03-15T10:49:49.483Z,100716.19
2023-03-15T10:52:36.935Z,100718.88
2023-03-15T10:55:16.508Z,100716.28
2023-03-15T10:57:57.713Z,100720.69
2023-03-15T11:00:36.778Z,100726.81
2023-03-15T11:03:17.037Z,100724.28
2023-03-15T11:05:47.098Z,100724.28
2023-03-15T11:08:16.471Z,100724.34
2023-03-15T11:10:44.436Z,100719.91
2023-03-15T11:13:11.973Z,100724.22
2023-03-15T11:15:39.910Z,100726.88
2023-03-15T11:18:09.370Z,100718.19
2023-03-15T11:20:39.091Z,100717.28
2023-03-15T11:23:19.906Z,100722.47
2023-03-15T11:25:46.443Z,100725.09
2023-03-15T11:28:18.397Z,100724.16
2023-03-15T11:30:48.448Z,100717.22
2023-03-15T11:33:27.996Z,100720.78
2023-03-15T11:35:55.545Z,100721.66
2023-03-15T11:38:45.790Z,100722.53
2023-03-15T11:41:24.995Z,100705.78
2023-03-15T11:44:25.653Z,100717.84
2023-03-15T11:47:27.662Z,100714.16
2023-03-15T11:49:56.123Z,100718.69
2023-03-15T11:52:25.017Z,100716.09
2023-03-15T11:54:55.231Z,100709.28
2023-03-15T11:57:40.697Z,100711.66
2023-03-15T12:00:28.618Z,100706.16
2023-03-15T12:03:01.855Z,100700.78
2023-03-15T12:06:04.348Z,100706.84
2023-03-15T12:08:53.172Z,100704.94
2023-03-15T12:11:19.853Z,100714.81
2023-03-15T12:14:01.851Z,100710.94
2023-03-15T12:16:30.613Z,100712.53
2023-03-15T12:18:58.347Z,100702.75
2023-03-15T12:21:35.630Z,100696.31
2023-03-15T12:24:06.169Z,100710.56
2023-03-15T12:26:40.519Z,100706.28
2023-03-15T12:29:20.936Z,100706.94
2023-03-15T12:32:04.153Z,100702.38
2023-03-15T12:34:37.217Z,100709.34
2023-03-15T12:37:09.682Z,100699.53
2023-03-15T12:39:49.020Z,100699.97
2023-03-15T12:42:39.025Z,100707.25
2023-03-15T12:45:17.888Z,100695.22
2023-03-15T12:47:50.823Z,100702.00
2023-03-15T12:50:39.140Z,100710.56
2023-03-15T12:53:15.704Z,100727.41
2023-03-15T12:55:43.401Z,100754.69
2023-03-15T12:58:12.181Z,100769.72
2023-03-15T13:00:41.157Z,100789.78
2023-03-15T13:03:12.244Z,100798.03
2023-03-15T13:05:54.539Z,100813.53
2023-03-15T13:08:46.425Z,100815.75
2023-03-15T13:11:22.060Z,100811.53
2023-03-15T13:13:54.342Z,100813.94
2023-03-15T13:16:53.283Z,100806.53
2023-03-15T13:19:23.174Z,100819.22
2023-03-15T13:22:08.626Z,100822.78
2023-03-15T13:25:09.879Z,100825.78
2023-03-15T13:27:43.828Z,100819.91
2023-03-15T13:30:30.276Z,100824.47
2023-03-15T13:33:06.297Z,100813.56
2023-03-15T13:35:33.620Z,100814.72
2023-03-15T13:38:07.820Z,100807.06
2023-03-15T13:40:34.480Z,100809.84
2023-03-15T13:43:02.053Z,100808.28
2023-03-15T13:45:28.755Z,100809.28
2023-03-15T13:47:55.341Z,100797.16
2023-03-15T13:50:22.025Z,100799.78
2023-03-15T13:52:48.941Z,100798.94
2023-03-15T13:55:20.419Z,100798.13
2023-03-15T13:57:48.158Z,100796.44
2023-03-15T14:00:19.178Z,100783.44
2023-03-15T14:02:50.717Z,100787.84
2023-03-15T14:05:20.038Z,100781.78
2023-03-15T14:07:50.063Z,100787.91
2023-03-15T14:10:16.951Z,100782.69
2023-03-15T14:12:45.078Z,100785.34
2023-03-15T14:15:19.092Z,100786.22
2023-03-15T14:17:54.862Z,100787.09
2023-03-15T14:20:28.457Z,100790.53
2023-03-15T14:22:58.879Z,100789.72
2023-03-15T14:25:25.530Z,100793.25
2023-03-15T14:27:52.206Z,100790.66
2023-03-15T14:30:24.971Z,100793.31
2023-03-15T14:32:54.779Z,100783.72
2023-03-15T14:35:35.986Z,100784.59
2023-03-15T14:38:19.554Z,100787.22
2023-03-15T14:40:46.606Z,100789.88
2023-03-15T14:43:13.241Z,100782.00
2023-03-15T14:45:42.445Z,100769.72
2023-03-15T14:48:26.931Z,100778.47
2023-03-15T14:50:53.687Z,100774.09
2023-03-15T14:53:23.897Z,100773.22
2023-03-15T14:55:50.803Z,100782.84
2023-03-15T14:58:19.782Z,100786.31
2023-03-15T15:00:48.953Z,100786.31
2023-03-15T15:03:20.301Z,100803.75
2023-03-15T15:05:47.205Z,100836.97
2023-03-15T15:08:16.300Z,100834.19
2023-03-15T15:10:45.467Z,100832.34
2023-03-15T15:13:19.722Z,100826.22
2023-03-15T15:15:55.041Z,100818.28
2023-03-15T15:18:24.852Z,100824.41
2023-03-15T15:20:54.431Z,100815.69
2023-03-15T15:23:25.653Z,100820.09
2023-03-15T15:25:54.664Z,100827.03
2023-03-15T15:28:34.224Z,100826.94
2023-03-15T15:31:02.586Z,100829.41
2023-03-15T15:33:29.270Z,100841.63
2023-03-15T15:35:57.663Z,100836.44
2023-03-15T15:38:28.733Z,100836.91
2023-03-15T15:40:55.440Z,100837.94
2023-03-15T15:43:22.166Z,100838.84
2023-03-15T15:45:48.862Z,100849.09
2023-03-15T15:48:15.514Z,100841.03
2023-03-15T15:50:42.148Z,100847.13
2023-03-15T15:53:13.373Z,100841.81
2023-03-15T15:55:40.079Z,100843.72
2023-03-15T15:58:09.760Z,100848.16
2023-03-15T16:00:37.480Z,100849.75
2023-03-15T16:03:14.876Z,100851.66
2023-03-15T16:05:42.364Z,100863.84
2023-03-15T16:08:21.742Z,100863.13
2023-03-15T16:10:48.332Z,100870.97
2023-03-15T16:13:15.255Z,100882.47
2023-03-15T16:15:41.935Z,100874.53
2023-03-15T16:18:11.948Z,100876.13
2023-03-15T16:20:39.712Z,100876.91
2023-03-15T16:23:06.634Z,100886.34
2023-03-15T16:25:35.518Z,100891.56
2023-03-15T16:28:03.556Z,100886.16
2023-03-15T16:30:31.627Z,100890.47
2023-03-15T16:32:58.582Z,100898.41
2023-03-15T16:35:31.076Z,100896.56
2023-03-15T16:37:59.147Z,100901.78
2023-03-15T16:40:32.302Z,100913.72
2023-03-15T16:42:59.430Z,100911.81
2023-03-15T16:45:27.060Z,100910.19
2023-03-15T16:47:53.991Z,100911.81
2023-03-15T16:50:20.685Z,100926.50
2023-03-15T16:52:48.511Z,100926.31
2023-03-15T16:55:17.787Z,100932.22
2023-03-15T16:57:44.452Z,100947.16
2023-03-15T17:00:17.174Z,100951.34
2023-03-15T17:02:54.832Z,100951.16
2023-03-15T17:05:21.645Z,100953.72
2023-03-15T17:07:49.763Z,100959.84
2023-03-15T17:10:23.117Z,100958.94
2023-03-15T17:12:50.903Z,100959.69
2023-03-15T17:15:20.385Z,100969.69
2023-03-15T17:17:48.348Z,100971.28
2023-03-15T17:20:21.498Z,100976.50
2023-03-15T17:22:52.762Z,100973.81
2023-03-15T17:25:19.744Z,100979.53
2023-03-15T17:27:47.854Z,100988.28
2023-03-15T17:30:18.203Z,101000.19
2023-03-15T17:32:45.130Z,100997.38
2023-03-15T17:35:12.551Z,101000.72
2023-03-15T17:37:39.798Z,100999.78
2023-03-15T17:40:15.091Z,101004.00
2023-03-15T17:42:41.722Z,101012.00
2023-03-15T17:45:22.486Z,101015.25
2023-03-15T17:47:50.355Z,101022.84
2023-03-15T17:50:18.403Z,101021.09
2023-03-15T17:52:46.603Z,101021.75
2023-03-15T17:55:18.110Z,101023.28
2023-03-15T17:57:54.040Z,101025.66
2023-03-15T18:00:21.822Z,101029.03
2023-03-15T18:02:54.987Z,101034.28
2023-03-15T18:05:24.928Z,101042.88
2023-03-15T18:07:58.797Z,101045.19
2023-03-15T18:10:26.373Z,101042.47
2023-03-15T18:12:53.819Z,101044.97
2023-03-15T18:15:22.785Z,101048.47
2023-03-15T18:17:50.762Z,101058.88
2023-03-15T18:20:18.344Z,101063.94
2023-03-15T18:22:45.155Z,101051.69
2023-03-15T18:25:22.655Z,101058.44
2023-03-15T18:27:49.773Z,101062.34
2023-03-15T18:30:18.807Z,101071.72
2023-03-15T18:32:45.723Z,101062.13
2023-03-15T18:35:21.795Z,101068.91
2023-03-15T18:37:48.583Z,101076.69
2023-03-15T18:40:18.769Z,101083.50
2023-03-15T18:42:45.695Z,101086.91
2023-03-15T18:45:23.270Z,101091.22
2023-03-15T18:47:49.984Z,101084.91
2023-03-15T18:50:17.363Z,101080.56
2023-03-15T18:52:44.510Z,101082.13
2023-03-15T18:55:12.857Z,101087.13
2023-03-15T18:57:43.032Z,101100.13
2023-03-15T19:00:13.472Z,101096.38
2023-03-15T19:02:42.037Z,101094.38
2023-03-15T19:05:09.524Z,101098.56
2023-03-15T19:07:36.334Z,101110.56
2023-03-15T19:10:03.258Z,101112.09
2023-03-15T19:12:29.924Z,101111.69
2023-03-15T19:14:56.581Z,101111.63
2023-03-15T19:17:23.323Z,101115.75
2023-03-15T19:19:49.949Z,101115.59
2023-03-15T19:22:16.845Z,101118.06
2023-03-15T19:24:43.489Z,101121.56
2023-03-15T19:27:10.170Z,101122.53
2023-03-15T19:29:36.810Z,101125.88
2023-03-15T19:32:04.096Z,101127.47
2023-03-15T19:34:31.683Z,101132.31
2023-03-15T19:36:58.921Z,101132.94
2023-03-15T19:39:25.611Z,101122.47
2023-03-15T19:41:52.317Z,101131.78
2023-03-15T19:44:18.965Z,101130.88
2023-03-15T19:46:45.701Z,101133.63
2023-03-15T19:49:12.565Z,101141.50
2023-03-15T19:51:39.204Z,101139.97
2023-03-15T19:54:06.071Z,101148.56
2023-03-15T19:56:32.703Z,101153.84
2023-03-15T19:58:59.339Z,101147.47
2023-03-15T20:01:26.148Z,101151.28
2023-03-15T20:03:52.846Z,101148.59
2023-03-15T20:06:19.597Z,101164.88
2023-03-15T20:08:46.265Z,101163.09
2023-03-15T20:11:20.019Z,101162.19
2023-03-15T20:13:46.961Z,101167.53
2023-03-15T20:16:13.700Z,101167.19
2023-03-15T20:18:40.574Z,101173.09
2023-03-15T20:21:07.201Z,101167.97
2023-03-15T20:23:34.876Z,101178.16
2023-03-15T20:26:06.576Z,101173.88
2023-03-15T20:28:33.357Z,101183.34
2023-03-15T20:31:00.065Z,101189.38
2023-03-15T20:33:26.851Z,101189.25
2023-03-15T20:35:53.609Z,101188.13
2023-03-15T20:38:20.455Z,101193.13
2023-03-15T20:40:47.297Z,101196.53
2023-03-15T20:43:14.173Z,101198.94
2023-03-15T20:45:40.962Z,101192.81
2023-03-15T20:48:07.641Z,101197.22
2023-03-15T20:50:34.308Z,101202.97
2023-03-15T20:53:04.287Z,101208.84
2023-03-15T20:55:31.833Z,101204.53
2023-03-15T20:57:58.623Z,101205.22
2023-03-15T21:00:27.156Z,101206.81
2023-03-15T21:02:53.810Z,101209.22
2023-03-15T21:05:20.544Z,101221.41
2023-03-15T21:07:47.149Z,101216.03
2023-03-15T21:10:14.255Z,101214.19
2023-03-15T21:12:41.128Z,101214.75
2023-03-15T21:15:08.264Z,101216.47
2023-03-15T21:17:34.932Z,101208.63
2023-03-15T21:20:01.537Z,101211.94
2023-03-15T21:22:28.175Z,101220.31
2023-03-15T21:24:56.323Z,101217.41
2023-03-15T21:27:26.402Z,101225.91
2023-03-15T21:29:53.623Z,101229.38
2023-03-15T21:32:20.416Z,101231.75
2023-03-15T21:34:47.088Z,101233.56
2023-03-15T21:37:13.716Z,101228.09
2023-03-15T21:39:40.685Z,101235.16
2023-03-15T21:42:07.956Z,101235.72
2023-03-15T21:44:34.636Z,101233.22
2023-03-15T21:47:02.106Z,101241.53
2023-03-15T21:49:28.967Z,101246.56
2023-03-15T21:51:56.692Z,101251.38
2023-03-15T21:54:23.342Z,101252.75
2023-03-15T21:56:49.974Z,101251.03
2023-03-15T21:59:16.678Z,101252.78
2023-03-15T22:01:43.312Z,101258.75
2023-03-15T22:04:12.797Z,101259.81
2023-03-15T22:06:39.439Z,101261.00
2023-03-15T22:09:06.066Z,101258.06
2023-03-15T22:11:32.704Z,101256.41
2023-03-15T22:13:59.352Z,101258.16
2023-03-15T22:16:26.122Z,101259.56
2023-03-15T22:18:52.927Z,101259.41
2023-03-15T22:21:19.718Z,101266.16
2023-03-15T22:23:46.356Z,101266.94
2023-03-15T22:26:13.049Z,101269.69
2023-03-15T22:28:39.807Z,101267.81
2023-03-15T22:31:09.968Z,101272.16
2023-03-15T22:33:38.852Z,101277.19
2023-03-15T22:36:06.379Z,101273.88
2023-03-15T22:38:37.697Z,101273.09
2023-03-15T22:41:10.887Z,101272.06
2023-03-15T22:43:38.895Z,101275.28
2023-03-15T22:46:05.614Z,101281.34
2023-03-15T22:48:32.640Z,101277.00
2023-03-15T22:51:06.365Z,101285.75
2023-03-15T22:53:33.587Z,101285.84
2023-03-15T22:56:01.247Z,101285.75
2023-03-15T22:58:28.014Z,101293.63
2023-03-15T23:00:55.231Z,101288.28
2023-03-15T23:03:22.645Z,101299.63
2023-03-15T23:05:49.332Z,101298.78
2023-03-15T23:08:16.066Z,101303.97
2023-03-15T23:10:45.833Z,101295.38
2023-03-15T23:13:15.480Z,101305.69
2023-03-15T23:15:43.426Z,101312.72
2023-03-15T23:18:10.406Z,101315.53
2023-03-15T23:20:37.682Z,101306.66
2023-03-15T23:23:04.376Z,101318.78
2023-03-15T23:25:31.540Z,101315.53
2023-03-15T23:27:58.498Z,101315.25
2023-03-15T23:30:25.404Z,101322.25
2023-03-15T23:32:57.478Z,101317.97
2023-03-15T23:35:26.434Z,101322.25
2023-03-15T23:37:53.253Z,101323.09
2023-03-15T23:40:20.930Z,101321.31
2023-03-15T23:42:48.433Z,101326.63
2023-03-15T23:45:15.637Z,101324.38
2023-03-15T23:47:42.915Z,101330.19
2023-03-15T23:50:10.868Z,101323.16
2023-03-15T23:52:37.458Z,101324.69
2023-03-15T23:55:04.244Z,101337.56
2023-03-15T23:57:30.874Z,101327.13
2023-03-15T23:59:57.591Z,101337.69
